Time;durP1;ratioP1;P1;durP2;ratioP2;P2;SDS_P1;SDS_P2;PMS_P1;PMS_P2;Temp;Humidity;BMP_temperature;BMP_pressure;BME280_temperature;BME280_humidity;BME280_pressure;Samples;Min_cycle;Max_cycle;Signal;HPM_P1;HPM_P2
2021/10/28 00:16:29;;;;;;;13.93;9.70;;;;;9.80;101461.00;;;;9809542;30;20298;-77
2021/10/28 00:21:34;;;;;;;14.03;9.63;;;;;9.80;101466.00;;;;9807093;29;20911;-76
2021/10/28 00:26:42;;;;;;;10.40;8.43;;;;;9.90;101463.00;;;;9831865;29;20272;-76
2021/10/28 00:31:47;;;;;;;13.90;9.03;;;;;9.90;101460.00;;;;9795999;29;20270;-76
2021/10/28 00:36:49;;;;;;;11.57;8.70;;;;;9.90;101457.00;;;;9809413;30;20307;-77
2021/10/28 00:41:51;;;;;;;12.50;8.97;;;;;9.90;101450.00;;;;9781810;30;20328;-77
2021/10/28 00:46:53;;;;;;;16.10;8.80;;;;;9.90;101453.00;;;;9823222;30;20247;-77
2021/10/28 00:51:55;;;;;;;16.43;8.13;;;;;9.90;101449.00;;;;9853079;29;20208;-76
2021/10/28 00:56:59;;;;;;;16.23;8.63;;;;;9.90;101438.00;;;;9837558;29;20736;-77
2021/10/28 01:02:01;;;;;;;13.17;7.43;;;;;9.90;101439.00;;;;9807976;30;20311;-77
2021/10/28 01:07:03;;;;;;;13.47;7.40;;;;;9.80;101438.00;;;;9831168;29;20220;-77
2021/10/28 01:12:06;;;;;;;13.63;7.97;;;;;9.80;101438.00;;;;9852698;29;20212;-77
2021/10/28 01:17:08;;;;;;;13.00;8.67;;;;;9.80;101437.00;;;;9837431;29;20212;-77
2021/10/28 01:22:11;;;;;;;11.07;8.00;;;;;9.70;101430.00;;;;9822968;29;20216;-78
2021/10/28 01:27:13;;;;;;;18.23;8.00;;;;;9.70;101427.00;;;;9820727;30;20213;-77
2021/10/28 01:32:16;;;;;;;13.43;8.40;;;;;9.70;101412.00;;;;9835694;29;20220;-77
2021/10/28 01:37:18;;;;;;;13.27;8.33;;;;;9.60;101416.00;;;;9822930;29;20639;-77
2021/10/28 01:42:20;;;;;;;15.83;7.60;;;;;9.60;101409.00;;;;9866394;29;20209;-77
2021/10/28 01:47:23;;;;;;;12.10;7.60;;;;;9.60;101393.00;;;;9835998;29;21021;-77
2021/10/28 01:52:25;;;;;;;12.27;7.50;;;;;9.50;101398.00;;;;9851244;29;20285;-77
2021/10/28 01:57:26;;;;;;;11.50;8.03;;;;;9.50;101391.00;;;;9837049;29;20231;-77
2021/10/28 02:02:29;;;;;;;11.93;7.03;;;;;9.50;101387.00;;;;9865485;29;20784;-77
2021/10/28 02:07:31;;;;;;;14.47;7.93;;;;;9.50;101386.00;;;;9822110;29;20211;-77
2021/10/28 02:12:35;;;;;;;14.33;7.80;;;;;9.50;101389.00;;;;9852345;29;20216;-77
2021/10/28 02:17:38;;;;;;;11.27;6.77;;;;;9.40;101383.00;;;;9847166;29;20211;-77
2021/10/28 02:22:42;;;;;;;12.03;7.17;;;;;9.40;101372.00;;;;9821770;29;20212;-77
2021/10/28 02:27:46;;;;;;;11.23;7.13;;;;;9.30;101368.00;;;;9850807;29;20230;-77
2021/10/28 02:32:52;;;;;;;10.70;7.33;;;;;9.30;101370.00;;;;9833160;29;20216;-77
2021/10/28 02:37:54;;;;;;;9.93;6.87;;;;;9.20;101356.00;;;;9820649;30;20230;-77
2021/10/28 02:42:56;;;;;;;13.80;7.30;;;;;9.20;101338.00;;;;9821468;29;20269;-77
2021/10/28 02:47:58;;;;;;;9.37;7.23;;;;;9.20;101340.00;;;;9803550;30;20268;-77
2021/10/28 02:53:00;;;;;;;15.70;7.87;;;;;9.20;101341.00;;;;9824566;29;20209;-77
2021/10/28 02:58:02;;;;;;;12.87;8.20;;;;;9.10;101332.00;;;;9819086;29;20259;-77
2021/10/28 03:03:04;;;;;;;14.83;7.63;;;;;9.10;101321.00;;;;9834988;29;20220;-77
2021/10/28 03:08:06;;;;;;;20.20;8.07;;;;;9.00;101311.00;;;;9835060;29;20231;-77
2021/10/28 03:13:08;;;;;;;14.47;7.40;;;;;9.10;101307.00;;;;9849304;29;20665;-77
2021/10/28 03:19:18;;;;;;;12.63;8.80;;;;;9.10;101304.00;;;;9818782;29;20277;-77
2021/10/28 03:29:16;;;;;;;16.07;8.97;;;;;9.10;101298.00;;;;9838550;29;20228;-77
2021/10/28 03:34:19;;;;;;;13.47;9.60;;;;;9.00;101284.00;;;;9811798;30;20209;-77
2021/10/28 03:44:57;;;;;;;11.47;8.30;;;;;9.00;101288.00;;;;9811464;30;20209;-77
2021/10/28 04:00:12;;;;;;;17.30;8.80;;;;;9.00;101277.00;;;;9848183;29;20849;-77
2021/10/28 04:05:45;;;;;;;16.13;9.47;;;;;9.10;101278.00;;;;9863191;29;20212;-77
2021/10/28 04:32:09;;;;;;;15.63;9.60;;;;;9.00;101268.00;;;;9825197;29;20216;-77
2021/10/28 04:37:11;;;;;;;16.27;9.97;;;;;8.90;101262.00;;;;9854032;29;20207;-77
2021/10/28 04:42:14;;;;;;;18.50;10.97;;;;;8.80;101262.00;;;;9856610;29;20241;-77
2021/10/28 04:47:16;;;;;;;16.57;10.07;;;;;8.80;101258.00;;;;9788648;30;20287;-76
2021/10/28 04:52:23;;;;;;;16.63;11.20;;;;;8.80;101258.00;;;;9817604;30;20208;-77
2021/10/28 04:57:27;;;;;;;17.10;11.90;;;;;8.80;101248.00;;;;9839108;29;20286;-77
2021/10/28 05:02:29;;;;;;;20.97;11.57;;;;;8.80;101250.00;;;;9838460;29;20329;-77
2021/10/28 05:07:31;;;;;;;17.03;12.13;;;;;8.80;101251.00;;;;9853271;29;20291;-76
2021/10/28 05:12:33;;;;;;;19.10;12.20;;;;;8.70;101248.00;;;;9853338;29;20287;-77
2021/10/28 05:17:36;;;;;;;17.77;13.03;;;;;8.70;101247.00;;;;9814784;29;20209;-77
2021/10/28 05:22:38;;;;;;;19.00;13.03;;;;;8.70;101250.00;;;;9816557;30;20348;-77
2021/10/28 05:27:40;;;;;;;26.27;13.37;;;;;8.60;101249.00;;;;9801618;30;20666;-77
2021/10/28 05:32:43;;;;;;;20.17;13.23;;;;;8.50;101237.00;;;;9846712;29;20220;-77
2021/10/28 05:37:45;;;;;;;22.97;13.67;;;;;8.50;101231.00;;;;9821812;29;20666;-77
2021/10/28 05:42:48;;;;;;;25.70;13.87;;;;;8.50;101230.00;;;;9852604;29;20232;-77
2021/10/28 05:47:51;;;;;;;24.53;14.10;;;;;8.40;101219.00;;;;9836949;29;20290;-77
2021/10/28 05:52:57;;;;;;;26.43;14.63;;;;;8.30;101220.00;;;;9838343;29;20844;-77
2021/10/28 05:57:59;;;;;;;26.03;14.73;;;;;8.30;101223.00;;;;9837416;29;20212;-76
2021/10/28 06:03:01;;;;;;;26.40;15.13;;;;;8.40;101208.00;;;;9814381;30;20247;-77
2021/10/28 06:08:07;;;;;;;25.17;15.20;;;;;8.40;101209.00;;;;9846654;29;20212;-76
2021/10/28 06:13:08;;;;;;;24.10;14.57;;;;;8.30;101209.00;;;;9822425;29;20283;-76
2021/10/28 06:23:15;;;;;;;24.30;14.77;;;;;8.30;101202.00;;;;9834215;29;20208;-76
2021/10/28 06:28:17;;;;;;;24.83;15.30;;;;;8.30;101203.00;;;;9845593;29;20223;-76
2021/10/28 06:33:21;;;;;;;32.70;15.80;;;;;8.30;101199.00;;;;9799856;30;20233;-77
2021/10/28 06:38:24;;;;;;;25.93;15.70;;;;;8.30;101184.00;;;;9800051;30;20724;-77
2021/10/28 06:43:26;;;;;;;24.23;14.27;;;;;8.30;101202.00;;;;9829547;29;20205;-77
2021/10/28 06:48:28;;;;;;;25.63;15.10;;;;;8.30;101206.00;;;;9830277;30;20256;-77
2021/10/28 06:53:42;;;;;;;25.27;14.77;;;;;8.40;101202.00;;;;9826114;29;20221;-76
2021/10/28 07:04:06;;;;;;;31.17;15.13;;;;;8.70;101211.00;;;;9805638;30;20235;-77
2021/10/28 07:09:20;;;;;;;28.33;16.73;;;;;8.80;101208.00;;;;9814227;29;20219;-76
2021/10/28 07:14:22;;;;;;;24.67;15.03;;;;;9.00;101199.00;;;;9849106;29;20718;-76
2021/10/28 07:19:52;;;;;;;26.27;15.27;;;;;9.00;101203.00;;;;9798122;30;20264;-77
2021/10/28 07:30:20;;;;;;;30.23;15.53;;;;;9.30;101207.00;;;;9806045;29;20263;-77
2021/10/28 08:18:15;;;;;;;18.53;12.30;;;;;11.40;101230.00;;;;9825026;29;20268;-77
2021/10/28 08:33:40;;;;;;;14.10;8.73;;;;;12.80;101234.00;;;;9829460;29;20196;-77
2021/10/28 08:38:42;;;;;;;13.77;9.83;;;;;13.10;101230.00;;;;9817310;29;20228;-76
2021/10/28 08:43:45;;;;;;;14.30;8.93;;;;;13.30;101214.00;;;;9818724;29;20236;-76
2021/10/28 08:48:52;;;;;;;15.63;8.80;;;;;13.60;101214.00;;;;9810175;30;20256;-76
2021/10/28 08:54:11;;;;;;;12.33;8.40;;;;;13.80;101211.00;;;;9847240;29;20250;-77
2021/10/28 09:31:33;;;;;;;14.37;9.77;;;;;14.90;101149.00;;;;9822977;30;20633;-77
2021/10/28 09:52:53;;;;;;;12.70;9.15;;;;;15.50;101118.00;;;;9816877;30;20217;-78
2021/10/28 09:58:01;;;;;;;12.97;9.03;;;;;15.60;101105.00;;;;9804251;29;20208;-77
2021/10/28 10:03:22;;;;;;;13.10;8.77;;;;;15.70;101100.00;;;;9847669;29;20232;-77
2021/10/28 10:08:26;;;;;;;12.40;7.75;;;;;15.90;101102.00;;;;9848370;29;20268;-77
2021/10/28 10:13:30;;;;;;;10.18;8.05;;;;;16.10;101099.00;;;;9834740;30;20240;-77
2021/10/28 10:18:36;;;;;;;9.32;6.65;;;;;16.40;101101.00;;;;9816932;29;20213;-77
2021/10/28 10:24:10;;;;;;;11.25;7.18;;;;;16.60;101085.00;;;;9799768;30;20247;-77
2021/10/28 10:29:40;;;;;;;6.88;6.18;;;;;16.90;101080.00;;;;9816497;29;20576;-78
2021/10/28 11:03:35;;;;;;;8.98;5.60;;;;;18.10;101040.00;;;;9801263;30;20259;-78
2021/10/28 12:52:34;;;;;;;10.07;3.45;;;;;19.30;100879.00;;;;9852358;29;20249;-77
2021/10/28 13:51:24;;;;;;;3.15;2.28;;;;;17.30;100804.00;;;;9843923;29;20253;-77
2021/10/28 15:41:58;;;;;;;9.18;2.42;;;;;15.80;100720.00;;;;9810921;30;20290;-78
2021/10/28 15:47:51;;;;;;;3.65;2.72;;;;;15.70;100715.00;;;;9812340;30;20252;-77
2021/10/28 16:24:38;;;;;;;6.53;3.60;;;;;14.50;100674.00;;;;9868727;29;20243;-78
2021/10/28 16:29:39;;;;;;;7.00;4.70;;;;;14.40;100677.00;;;;9872304;29;20251;-78
2021/10/28 16:34:42;;;;;;;9.60;5.30;;;;;14.20;100673.00;;;;9859711;30;20782;-78
2021/10/28 16:39:44;;;;;;;6.87;4.50;;;;;14.00;100681.00;;;;9846624;30;20258;-77
2021/10/28 16:44:46;;;;;;;7.47;4.47;;;;;13.90;100666.00;;;;9816606;30;20211;-77
2021/10/28 16:49:48;;;;;;;8.47;4.63;;;;;13.60;100672.00;;;;9824410;30;20201;-77
2021/10/28 16:54:50;;;;;;;6.20;4.23;;;;;13.50;100671.00;;;;9835493;30;20263;-77
2021/10/28 16:59:52;;;;;;;7.73;5.70;;;;;13.40;100667.00;;;;9809239;30;20247;-77
2021/10/28 17:04:54;;;;;;;10.90;6.03;;;;;13.20;100659.00;;;;9875569;30;20228;-77
2021/10/28 17:09:57;;;;;;;9.87;6.00;;;;;13.10;100652.00;;;;9860017;30;20200;-77
2021/10/28 17:14:59;;;;;;;9.30;6.10;;;;;13.10;100655.00;;;;9843020;30;20292;-77
2021/10/28 17:20:07;;;;;;;8.77;6.50;;;;;13.10;100654.00;;;;9823534;30;20304;-77
2021/10/28 17:25:17;;;;;;;16.87;11.40;;;;;13.10;100651.00;;;;9838087;30;20278;-77
2021/10/28 17:30:20;;;;;;;11.80;6.20;;;;;13.00;100646.00;;;;9823901;30;20204;-77
2021/10/28 17:35:22;;;;;;;9.83;5.20;;;;;13.00;100655.00;;;;9860240;30;20208;-77
2021/10/28 17:40:24;;;;;;;5.70;4.57;;;;;12.90;100657.00;;;;9855609;30;20350;-77
2021/10/28 17:45:29;;;;;;;8.23;5.30;;;;;12.90;100657.00;;;;9837172;30;20225;-77
2021/10/28 17:50:31;;;;;;;9.33;5.37;;;;;12.90;100654.00;;;;9808820;30;20205;-77
2021/10/28 17:55:33;;;;;;;7.37;5.37;;;;;12.90;100658.00;;;;9808081;30;20256;-77
2021/10/28 18:00:35;;;;;;;9.43;5.47;;;;;12.80;100653.00;;;;9842599;30;20274;-77
2021/10/28 18:05:39;;;;;;;6.57;5.17;;;;;12.70;100650.00;;;;9852073;30;20200;-77
2021/10/28 18:10:42;;;;;;;13.50;7.40;;;;;12.70;100660.00;;;;9859806;30;20230;-77
2021/10/28 18:15:45;;;;;;;14.70;9.97;;;;;12.60;100647.00;;;;9843633;30;20200;-76
2021/10/28 18:20:47;;;;;;;19.17;11.23;;;;;12.50;100634.00;;;;9873696;30;20248;-77
2021/10/28 18:26:03;;;;;;;11.33;8.50;;;;;12.50;100623.00;;;;9860532;30;20207;-77
2021/10/28 18:31:05;;;;;;;10.17;6.00;;;;;12.40;100623.00;;;;9837893;30;20646;-77
2021/10/28 18:36:08;;;;;;;9.10;6.17;;;;;12.40;100609.00;;;;9843039;30;20197;-77
2021/10/28 18:41:11;;;;;;;8.53;5.20;;;;;12.40;100612.00;;;;9836105;30;20252;-76
2021/10/28 18:46:17;;;;;;;9.27;5.83;;;;;12.30;100606.00;;;;9791665;30;20685;-77
2021/10/28 18:51:20;;;;;;;8.73;5.73;;;;;12.20;100597.00;;;;9835360;30;20229;-77
2021/10/28 18:56:23;;;;;;;10.47;6.43;;;;;12.10;100590.00;;;;9821240;30;20197;-77
2021/10/28 19:01:30;;;;;;;10.50;6.90;;;;;12.10;100593.00;;;;9820246;30;20228;-77
2021/10/28 19:06:33;;;;;;;8.73;6.37;;;;;12.00;100581.00;;;;9829914;30;20559;-77
2021/10/28 19:11:35;;;;;;;7.03;5.57;;;;;12.00;100576.00;;;;9856580;30;20207;-77
2021/10/28 19:16:39;;;;;;;11.30;6.40;;;;;12.00;100566.00;;;;9842092;30;20216;-77
2021/10/28 19:21:42;;;;;;;11.57;6.13;;;;;11.90;100572.00;;;;9853799;30;20240;-77
2021/10/28 19:26:44;;;;;;;7.77;6.57;;;;;11.80;100554.00;;;;9841319;30;20731;-77
2021/10/28 19:31:53;;;;;;;7.30;6.33;;;;;11.80;100543.00;;;;9839351;30;20681;-77
2021/10/28 19:37:06;;;;;;;7.00;6.17;;;;;11.80;100532.00;;;;9841240;30;20772;-77
2021/10/28 19:42:30;;;;;;;7.63;6.40;;;;;11.70;100532.00;;;;9840557;30;20758;-77
2021/10/28 19:47:32;;;;;;;10.27;6.30;;;;;11.70;100524.00;;;;9855083;30;20685;-77
2021/10/28 19:52:34;;;;;;;9.73;6.63;;;;;11.70;100526.00;;;;9871274;30;20224;-77
2021/10/28 19:57:41;;;;;;;13.13;5.60;;;;;11.70;100521.00;;;;9855439;30;20283;-77
2021/10/28 20:13:22;;;;;;;10.80;5.83;;;;;11.70;100506.00;;;;9839964;30;20215;-77
2021/10/28 20:23:49;;;;;;;10.03;5.77;;;;;11.70;100509.00;;;;9824667;30;20211;-76
2021/10/28 20:28:53;;;;;;;7.87;5.30;;;;;11.70;100505.00;;;;9854159;30;20250;-77
2021/10/28 20:34:14;;;;;;;8.50;5.33;;;;;11.70;100512.00;;;;9837630;30;20656;-77
2021/10/28 20:39:16;;;;;;;7.17;5.70;;;;;11.60;100516.00;;;;9837504;30;20227;-77
2021/10/28 20:44:18;;;;;;;5.63;4.90;;;;;11.60;100516.00;;;;9823664;30;20259;-76
2021/10/28 20:49:19;;;;;;;7.87;5.33;;;;;11.50;100522.00;;;;9852591;30;20307;-76
2021/10/28 20:54:22;;;;;;;5.43;4.70;;;;;11.50;100511.00;;;;9850521;30;20232;-77
2021/10/28 20:59:30;;;;;;;6.47;5.30;;;;;11.40;100516.00;;;;9840048;30;20212;-77
2021/10/28 21:04:32;;;;;;;8.33;5.70;;;;;11.40;100525.00;;;;9858280;30;20323;-77
2021/10/28 21:09:34;;;;;;;7.93;5.40;;;;;11.20;100507.00;;;;9873490;30;20292;-76
2021/10/28 21:14:36;;;;;;;7.83;5.80;;;;;11.10;100503.00;;;;9843995;30;20201;-77
2021/10/28 21:19:38;;;;;;;9.37;5.20;;;;;11.10;100505.00;;;;9858344;30;20205;-76
2021/10/28 21:24:42;;;;;;;8.57;5.17;;;;;11.10;100494.00;;;;9832718;30;20208;-77
2021/10/28 21:29:45;;;;;;;11.23;4.97;;;;;11.10;100492.00;;;;9785726;30;1109584;-77
2021/10/28 21:34:47;;;;;;;6.67;5.13;;;;;11.10;100500.00;;;;9807609;30;20228;-77
2021/10/28 21:39:54;;;;;;;7.63;4.80;;;;;11.00;100495.00;;;;9794562;30;20209;-77
2021/10/28 21:44:56;;;;;;;10.27;5.03;;;;;10.90;100492.00;;;;9836951;30;20237;-76
2021/10/28 21:49:59;;;;;;;7.70;5.03;;;;;10.90;100496.00;;;;9878397;30;20616;-77
2021/10/28 22:00:31;;;;;;;7.40;5.50;;;;;11.00;100484.00;;;;9873773;30;20200;-77
2021/10/28 22:05:57;;;;;;;7.10;4.67;;;;;11.00;100481.00;;;;9859751;30;20200;-77
2021/10/28 22:27:02;;;;;;;9.07;4.57;;;;;11.00;100458.00;;;;9844010;30;20215;-77
2021/10/28 22:32:06;;;;;;;7.00;4.80;;;;;11.00;100463.00;;;;9857715;30;20212;-77
2021/10/28 22:37:24;;;;;;;7.47;4.60;;;;;10.90;100459.00;;;;9828717;30;20258;-77
2021/10/28 22:42:26;;;;;;;7.20;4.43;;;;;10.90;100453.00;;;;9858545;30;20692;-77
2021/10/28 22:47:29;;;;;;;5.63;4.57;;;;;11.00;100447.00;;;;9873628;30;20877;-77
2021/10/28 22:52:33;;;;;;;6.33;4.77;;;;;11.00;100444.00;;;;9872184;30;20200;-77
2021/10/28 23:08:28;;;;;;;7.23;4.50;;;;;11.10;100426.00;;;;9841267;30;20200;-77
2021/10/28 23:13:51;;;;;;;7.17;5.20;;;;;11.10;100424.00;;;;9842204;30;20230;-77
2021/10/28 23:24:12;;;;;;;6.97;5.00;;;;;11.10;100411.00;;;;9830173;30;20220;-77
2021/10/28 23:29:14;;;;;;;6.27;4.73;;;;;11.10;100413.00;;;;9819373;30;20275;-77
2021/10/28 23:34:16;;;;;;;10.73;4.83;;;;;11.10;100400.00;;;;9821401;30;20275;-77
2021/10/28 23:39:18;;;;;;;5.67;4.93;;;;;11.10;100404.00;;;;9870062;30;20262;-77
2021/10/28 23:44:20;;;;;;;8.23;4.73;;;;;11.10;100379.00;;;;9840053;30;20247;-77
2021/10/28 23:49:22;;;;;;;5.83;4.77;;;;;11.10;100382.00;;;;9869693;30;20231;-77
2021/10/28 23:54:24;;;;;;;8.03;4.33;;;;;11.10;100372.00;;;;9854459;30;20319;-77
2021/10/28 23:59:29;;;;;;;7.47;5.10;;;;;11.10;100360.00;;;;9840237;30;20822;-77
